Corneil Estates, New York
Current Conditions -  °F | °C
As of 8:56 PM on Sunday 21 Dec 2014 (Local Time) from KISP Reporting Station
Overcast Overcast  
Wind Chill: 30°   Ceiling: 700
Heat Index: 36°   Visibility: 10mi
Dew Point: 33°   Wind: 7mph
Humidity: 89%   Direction: 360°N
Pressure: 30.31"   Gusts: NA
Location:  40.6448°N, 73.1603°W
Report Text: KISP 220156Z 36006KT 10SM OVC007 02/01 A3031 RMK AO2 SLP265 T00220006
Loading
Personal Weather Stations






























Interactive Weather Map New forecast layout! Learn more

10-Day Weather Forecast

Advertisements
Track Severe Weather on mobile